Terminal Aerodrome Forecast
Issued by NWS Detroit/Pontiac, MI

Home | Current Version | Previous Version | Text Only | Print | Product List | Glossary On
Versions: 1 2 3 4 5 6 7 8 9 10 11 12 13 14 15 16 17 18 19 20 21 22 23 24
525
FTUS43 KDTX 230811 AAA
TAFDTW
TAF AMD
KDTW 230811Z 2308/2412 17008KT P6SM SCT050 OVC120
     FM231900 16007KT 5SM -RA BKN030 OVC100
     FM232200 14010KT 2SM RA BR OVC010
     FM240000 16014G20KT 5SM -SHRA BR OVC015
     FM240600 24014G25KT 6SM -SHRA OVC020=

USA.gov is the U.S. government's official web portal to all federal, state and local government web resources and services.